createdAt,value
2023-05-06T00:01:32.920Z,98262.72
2023-05-06T00:04:18.577Z,98254.38
2023-05-06T00:07:03.871Z,98186.63
2023-05-06T00:09:49.604Z,98262.56
2023-05-06T00:12:38.089Z,98243.66
2023-05-06T00:15:23.214Z,98270.53
2023-05-06T00:18:08.552Z,98260.31
2023-05-06T00:20:54.040Z,98260.94
2023-05-06T00:23:39.460Z,98260.53
2023-05-06T00:26:25.685Z,98248.50
2023-05-06T00:29:12.089Z,98257.31
2023-05-06T00:31:58.542Z,98252.41
2023-05-06T00:34:44.283Z,98250.13
2023-05-06T00:37:29.961Z,98254.44
2023-05-06T00:40:15.267Z,98249.16
2023-05-06T00:43:00.357Z,98253.69
2023-05-06T00:45:46.053Z,98256.75
2023-05-06T00:48:31.637Z,98262.47
2023-05-06T00:51:17.610Z,98263.88
2023-05-06T00:54:02.966Z,98260.22
2023-05-06T00:56:48.562Z,98252.72
2023-05-06T00:59:33.828Z,98258.44
2023-05-06T01:02:19.110Z,98261.28
2023-05-06T01:05:04.849Z,98260.44
2023-05-06T01:08:32.445Z,98267.59
2023-05-06T01:11:33.980Z,98249.69
2023-05-06T01:14:47.538Z,98272.31
2023-05-06T01:17:35.830Z,98269.03
2023-05-06T01:20:21.968Z,98265.16
2023-05-06T01:23:14.489Z,98238.88
2023-05-06T01:25:59.854Z,98266.19
2023-05-06T01:28:45.059Z,98252.31
2023-05-06T01:31:39.939Z,98251.88
2023-05-06T01:34:34.136Z,98252.09
2023-05-06T01:37:30.345Z,98255.16
2023-05-06T01:40:17.698Z,98256.38
2023-05-06T01:43:05.655Z,98223.97
2023-05-06T01:45:54.030Z,98255.16
2023-05-06T01:48:39.850Z,98252.72
2023-05-06T01:51:25.186Z,98256.59
2023-05-06T01:54:11.134Z,98251.53
2023-05-06T01:56:57.410Z,98258.84
2023-05-06T01:59:42.952Z,98256.81
2023-05-06T02:02:28.579Z,98224.22
2023-05-06T02:05:13.996Z,98270.69
2023-05-06T02:08:03.746Z,98272.09
2023-05-06T02:10:49.055Z,98270.66
2023-05-06T02:13:34.275Z,98269.41
2023-05-06T02:16:19.848Z,98273.94
2023-05-06T02:19:05.691Z,98267.00
2023-05-06T02:21:51.244Z,98264.13
2023-05-06T02:24:36.339Z,98272.88
2023-05-06T02:27:21.633Z,98260.66
2023-05-06T02:30:07.695Z,98270.22
2023-05-06T02:32:53.106Z,98278.34
2023-05-06T02:35:39.793Z,98282.81
2023-05-06T02:38:25.785Z,98280.16
2023-05-06T02:41:12.016Z,98260.59
2023-05-06T02:43:57.246Z,98275.25
2023-05-06T02:46:42.619Z,98275.44
2023-05-06T02:49:29.232Z,98269.78
2023-05-06T02:52:15.253Z,98274.84
2023-05-06T02:55:01.822Z,98270.56
2023-05-06T02:57:47.285Z,98277.72
2023-05-06T03:00:32.405Z,98214.50
2023-05-06T03:03:17.995Z,98265.88
2023-05-06T03:06:03.616Z,98286.66
2023-05-06T03:08:48.903Z,98207.78
2023-05-06T03:11:34.108Z,98233.88
2023-05-06T03:14:22.640Z,98290.09
2023-05-06T03:17:08.379Z,98210.94
2023-05-06T03:19:55.726Z,98289.66
2023-05-06T03:22:41.563Z,98289.28
2023-05-06T03:25:26.896Z,98280.06
2023-05-06T03:28:13.507Z,98294.31
2023-05-06T03:31:00.196Z,98294.72
2023-05-06T03:33:45.679Z,98287.34
2023-05-06T03:36:32.061Z,98288.38
2023-05-06T03:39:18.085Z,98271.44
2023-05-06T03:42:05.918Z,98299.41
2023-05-06T03:44:52.368Z,98292.91
2023-05-06T03:47:37.725Z,98219.91
2023-05-06T03:50:25.511Z,98291.63
2023-05-06T03:53:12.433Z,98291.66
2023-05-06T03:55:59.983Z,98299.22
2023-05-06T03:58:45.078Z,98297.31
2023-05-06T04:01:30.930Z,98304.59
2023-05-06T04:04:16.222Z,98307.97
2023-05-06T04:07:02.441Z,98306.56
2023-05-06T04:09:47.976Z,98310.69
2023-05-06T04:12:34.431Z,98306.03
2023-05-06T04:15:19.958Z,98317.06
2023-05-06T04:18:05.850Z,98315.69
2023-05-06T04:20:51.505Z,98313.06
2023-05-06T04:23:37.096Z,98320.84
2023-05-06T04:26:22.850Z,98324.13
2023-05-06T04:29:08.977Z,98298.19
2023-05-06T04:32:00.559Z,98349.78
2023-05-06T04:34:48.901Z,98352.25
2023-05-06T04:37:35.006Z,98271.91
2023-05-06T04:40:27.322Z,98350.84
2023-05-06T04:43:12.999Z,98352.47
2023-05-06T04:45:58.530Z,98358.53
2023-05-06T04:48:47.571Z,98356.78
2023-05-06T04:51:34.601Z,98285.75
2023-05-06T04:54:20.852Z,98364.72
2023-05-06T04:57:06.388Z,98358.22
2023-05-06T04:59:53.128Z,98312.78
2023-05-06T05:02:38.471Z,98374.56
2023-05-06T05:05:25.801Z,98381.66
2023-05-06T05:08:12.124Z,98369.44
2023-05-06T05:10:57.767Z,98351.06
2023-05-06T05:13:44.851Z,98380.03
2023-05-06T05:16:30.341Z,98377.03
2023-05-06T05:19:16.334Z,98373.16
2023-05-06T05:22:02.444Z,98378.91
2023-05-06T05:24:50.176Z,98369.41
2023-05-06T05:27:35.808Z,98380.09
2023-05-06T05:30:21.313Z,98389.28
2023-05-06T05:33:08.187Z,98389.28
2023-05-06T05:35:56.011Z,98391.50
2023-05-06T05:38:42.038Z,98383.59
2023-05-06T05:41:27.724Z,98386.03
2023-05-06T05:44:13.581Z,98391.94
2023-05-06T05:46:59.740Z,98387.44
2023-05-06T05:49:46.736Z,98394.59
2023-05-06T05:52:35.636Z,98388.47
2023-05-06T05:55:22.030Z,98387.22
2023-05-06T05:58:10.419Z,98330.72
2023-05-06T06:00:56.669Z,98380.19
2023-05-06T06:03:42.429Z,98385.59
2023-05-06T06:06:28.109Z,98386.44
2023-05-06T06:09:13.479Z,98393.00
2023-05-06T06:11:59.451Z,98393.22
2023-05-06T06:14:47.941Z,98394.31
2023-05-06T06:17:38.984Z,98358.38
2023-05-06T06:20:25.513Z,98395.59
2023-05-06T06:23:11.967Z,98385.72
2023-05-06T06:25:57.211Z,98394.41
2023-05-06T06:28:42.721Z,98389.00
2023-05-06T06:31:28.165Z,98391.88
2023-05-06T06:34:13.255Z,98400.22
2023-05-06T06:36:59.008Z,98397.19
2023-05-06T06:39:44.487Z,98399.19
2023-05-06T06:42:29.835Z,98400.78
2023-05-06T06:45:26.366Z,98403.25
2023-05-06T06:48:11.881Z,98402.00
2023-05-06T06:50:56.927Z,98400.59
2023-05-06T06:53:42.135Z,98399.63
2023-05-06T06:56:27.209Z,98405.34
2023-05-06T06:59:12.484Z,98404.59
2023-05-06T07:01:57.814Z,98407.19
2023-05-06T07:04:43.048Z,98401.47
2023-05-06T07:07:28.521Z,98406.47
2023-05-06T07:10:13.988Z,98373.47
2023-05-06T07:12:59.282Z,98409.00
2023-05-06T07:15:44.523Z,98407.72
2023-05-06T07:18:29.601Z,98410.53
2023-05-06T07:21:15.778Z,98413.38
2023-05-06T07:24:00.940Z,98395.59
2023-05-06T07:26:47.174Z,98425.53
2023-05-06T07:29:32.936Z,98421.66
2023-05-06T07:32:18.382Z,98427.34
2023-05-06T07:35:04.079Z,98426.03
2023-05-06T07:37:49.510Z,98439.88
2023-05-06T07:40:34.651Z,98436.31
2023-05-06T07:43:22.012Z,98428.81
2023-05-06T07:46:07.397Z,98431.75
2023-05-06T07:48:52.754Z,98431.72
2023-05-06T07:51:38.195Z,98433.94
2023-05-06T07:54:23.677Z,98434.41
2023-05-06T07:57:09.353Z,98432.59
2023-05-06T07:59:54.821Z,98405.59
2023-05-06T08:02:40.115Z,98430.97
2023-05-06T08:05:25.246Z,98437.63
2023-05-06T08:08:10.690Z,98428.53
2023-05-06T08:10:58.636Z,98434.44
2023-05-06T08:13:44.299Z,98401.09
2023-05-06T08:16:29.641Z,98432.97
2023-05-06T08:19:15.081Z,98436.34
2023-05-06T08:22:00.834Z,98435.13
2023-05-06T08:24:46.097Z,98442.88
2023-05-06T08:27:31.576Z,98442.47
2023-05-06T08:30:17.023Z,98441.19
2023-05-06T08:33:02.780Z,98446.19
2023-05-06T08:35:47.942Z,98448.28
2023-05-06T08:38:33.498Z,98424.41
2023-05-06T08:41:20.752Z,98458.13
2023-05-06T08:44:07.943Z,98445.13
2023-05-06T08:46:53.631Z,98405.03
2023-05-06T08:49:40.430Z,98452.56
2023-05-06T08:52:26.430Z,98457.88
2023-05-06T08:55:12.363Z,98452.66
2023-05-06T08:57:58.424Z,98455.66
2023-05-06T09:00:44.564Z,98457.34
2023-05-06T09:03:29.784Z,98445.06
2023-05-06T09:06:15.288Z,98446.66
2023-05-06T09:09:00.372Z,98442.16
2023-05-06T09:11:45.994Z,98406.78
2023-05-06T09:14:31.583Z,98442.16
2023-05-06T09:17:21.844Z,98444.38
2023-05-06T09:20:11.551Z,98442.16
2023-05-06T09:22:57.295Z,98405.88
2023-05-06T09:25:44.415Z,98438.56
2023-05-06T09:28:33.045Z,98444.59
2023-05-06T09:31:18.452Z,98433.34
2023-05-06T09:34:04.059Z,98433.22
2023-05-06T09:36:49.183Z,98439.03
2023-05-06T09:39:34.392Z,98437.25
2023-05-06T09:42:21.665Z,98437.44
2023-05-06T09:45:08.692Z,98434.81
2023-05-06T09:47:54.401Z,98430.69
2023-05-06T09:50:39.748Z,98418.19
2023-05-06T09:53:25.496Z,98436.34
2023-05-06T09:56:12.113Z,98435.94
2023-05-06T09:58:58.355Z,98405.16
2023-05-06T10:01:43.910Z,98431.91
2023-05-06T10:04:30.978Z,98407.81
2023-05-06T10:07:20.522Z,98431.88
2023-05-06T10:10:09.002Z,98426.63
2023-05-06T10:12:55.443Z,98430.44
2023-05-06T10:15:42.333Z,98428.19
2023-05-06T10:18:31.870Z,98415.72
2023-05-06T10:21:24.151Z,98432.34
2023-05-06T10:24:13.358Z,98429.88
2023-05-06T10:27:02.001Z,98408.03
2023-05-06T10:29:49.099Z,98421.78
2023-05-06T10:32:35.034Z,98428.31
2023-05-06T10:35:42.199Z,98422.94
2023-05-06T10:38:34.341Z,98424.25
2023-05-06T10:41:20.284Z,98421.09
2023-05-06T10:44:05.818Z,98424.34
2023-05-06T10:46:59.723Z,98417.22
2023-05-06T10:50:24.194Z,98414.28
2023-05-06T10:53:09.730Z,98407.25
2023-05-06T10:56:07.434Z,98418.81
2023-05-06T10:58:54.739Z,98363.50
2023-05-06T11:01:42.114Z,98412.44
2023-05-06T11:04:28.317Z,98416.38
2023-05-06T11:07:15.628Z,98410.97
2023-05-06T11:10:03.882Z,98408.97
2023-05-06T11:12:52.320Z,98410.16
2023-05-06T11:15:40.708Z,98406.91
2023-05-06T11:18:25.736Z,98403.28
2023-05-06T11:21:12.227Z,98401.66
2023-05-06T11:23:57.494Z,98411.09
2023-05-06T11:26:43.372Z,98402.53
2023-05-06T11:29:28.790Z,98407.94
2023-05-06T11:32:23.163Z,98411.50
2023-05-06T11:35:08.691Z,98405.31
2023-05-06T11:37:54.443Z,98401.91
2023-05-06T11:40:42.065Z,98400.06
2023-05-06T11:43:27.330Z,98405.97
2023-05-06T11:46:12.374Z,98400.31
2023-05-06T11:48:57.539Z,98398.84
2023-05-06T11:51:42.823Z,98398.84
2023-05-06T11:54:28.228Z,98401.84
2023-05-06T11:57:14.111Z,98395.47
2023-05-06T11:59:59.497Z,98398.47
2023-05-06T12:02:44.690Z,98398.31
2023-05-06T12:05:30.582Z,98406.78
2023-05-06T12:08:27.977Z,98377.16
2023-05-06T12:11:14.032Z,98382.38
2023-05-06T12:13:59.902Z,98390.56
2023-05-06T12:16:45.427Z,98397.59
2023-05-06T12:19:31.944Z,98399.22
2023-05-06T12:22:26.285Z,98393.34
2023-05-06T12:25:15.474Z,98399.31
2023-05-06T12:28:01.119Z,98399.59
2023-05-06T12:30:46.861Z,98403.56
2023-05-06T12:33:44.660Z,98392.22
2023-05-06T12:36:30.816Z,98390.69
2023-05-06T12:39:16.111Z,98401.34
2023-05-06T12:42:01.429Z,98370.34
2023-05-06T12:44:46.673Z,98399.19
2023-05-06T12:47:32.045Z,98401.59
2023-05-06T12:50:37.635Z,98320.38
2023-05-06T12:53:34.285Z,98393.47
2023-05-06T12:56:20.852Z,98387.84
2023-05-06T12:59:06.206Z,98391.19
2023-05-06T13:01:51.493Z,98392.44
2023-05-06T13:04:36.645Z,98359.41
2023-05-06T13:07:22.196Z,98389.31
2023-05-06T13:10:08.014Z,98392.03
2023-05-06T13:12:53.564Z,98385.00
2023-05-06T13:15:38.943Z,98393.38
2023-05-06T13:18:24.505Z,98388.78
2023-05-06T13:21:09.941Z,98390.56
2023-05-06T13:23:55.387Z,98353.94
2023-05-06T13:26:40.618Z,98387.06
2023-05-06T13:29:25.914Z,98386.06
2023-05-06T13:32:10.970Z,98381.09
2023-05-06T13:34:56.568Z,98380.53
2023-05-06T13:37:41.652Z,98387.69
2023-05-06T13:40:26.902Z,98375.94
2023-05-06T13:43:12.324Z,98359.47
2023-05-06T13:45:57.735Z,98377.34
2023-05-06T13:48:42.974Z,98380.34
2023-05-06T13:51:28.169Z,98371.47
2023-05-06T13:54:13.472Z,98375.50
2023-05-06T13:56:58.582Z,98379.97
2023-05-06T13:59:44.178Z,98375.28
2023-05-06T14:02:30.305Z,98369.16
2023-05-06T14:08:01.853Z,98341.84
2023-05-06T14:10:47.135Z,98359.94
2023-05-06T14:13:33.812Z,98364.88
2023-05-06T14:16:19.291Z,98361.78
2023-05-06T14:19:04.574Z,98360.28
2023-05-06T14:21:50.004Z,98317.81
2023-05-06T14:24:35.274Z,98351.84
2023-05-06T14:27:20.874Z,98332.91
2023-05-06T14:30:09.440Z,98353.06
2023-05-06T14:32:55.351Z,98350.28
2023-05-06T14:35:42.295Z,98347.06
2023-05-06T14:38:27.464Z,98349.28
2023-05-06T14:41:12.957Z,98345.75
2023-05-06T14:43:58.449Z,98346.31
2023-05-06T14:46:44.179Z,98346.56
2023-05-06T14:49:29.908Z,98339.47
2023-05-06T14:52:15.334Z,98337.34
2023-05-06T14:55:00.380Z,98341.88
2023-05-06T14:57:47.034Z,98344.03
2023-05-06T15:00:32.600Z,98340.72
2023-05-06T15:03:17.719Z,98341.97
2023-05-06T15:06:03.105Z,98334.75
2023-05-06T15:08:48.577Z,98342.59
2023-05-06T15:11:34.099Z,98338.28
2023-05-06T15:14:19.609Z,98338.94
2023-05-06T15:17:05.375Z,98333.22
2023-05-06T15:19:50.762Z,98335.56
2023-05-06T15:22:38.684Z,98331.84
2023-05-06T15:25:34.950Z,98318.56
2023-05-06T15:28:24.230Z,98328.38
2023-05-06T15:31:09.859Z,98311.88
2023-05-06T15:33:55.214Z,98333.19
2023-05-06T15:36:40.729Z,98332.00
2023-05-06T15:39:26.032Z,98330.66
2023-05-06T15:42:11.488Z,98124.97
2023-05-06T15:44:57.678Z,98330.22
2023-05-06T15:47:42.906Z,98331.66
2023-05-06T15:50:33.415Z,98328.53
2023-05-06T15:53:19.882Z,98326.53
2023-05-06T15:58:52.896Z,98311.47
2023-05-06T16:04:27.863Z,98324.94
2023-05-06T16:07:13.376Z,98330.44
2023-05-06T16:09:58.729Z,98325.78
2023-05-06T16:12:43.938Z,98318.88
2023-05-06T16:15:28.948Z,98259.91
2023-05-06T16:18:14.779Z,98286.50
2023-05-06T16:21:00.001Z,98325.06
2023-05-06T16:23:45.450Z,98327.53
2023-05-06T16:26:30.767Z,98325.81
2023-05-06T16:29:16.232Z,98328.50
2023-05-06T16:32:01.563Z,98274.84
2023-05-06T16:34:47.290Z,98333.47
2023-05-06T16:37:32.890Z,98329.91
2023-05-06T16:40:20.026Z,98331.97
2023-05-06T16:43:05.187Z,98334.00
2023-05-06T16:45:50.637Z,98327.19
2023-05-06T16:48:36.110Z,98243.28
2023-05-06T16:51:21.509Z,98315.34
2023-05-06T16:54:08.212Z,98328.66
2023-05-06T16:56:53.362Z,98300.50
2023-05-06T16:59:38.840Z,98340.13
2023-05-06T17:02:24.010Z,98279.28
2023-05-06T17:05:09.619Z,98343.00
2023-05-06T17:07:55.180Z,98329.00
2023-05-06T17:10:41.209Z,98337.59
2023-05-06T17:13:26.442Z,98338.34
2023-05-06T17:16:14.990Z,98323.88
2023-05-06T17:19:00.021Z,98332.19
2023-05-06T17:21:45.712Z,98338.34
2023-05-06T17:24:30.892Z,98335.25
2023-05-06T17:27:17.499Z,98336.38
2023-05-06T17:30:03.125Z,98351.81
2023-05-06T17:32:48.576Z,98348.81
2023-05-06T17:35:34.032Z,98345.34
2023-05-06T17:38:19.603Z,98339.63
2023-05-06T17:41:05.415Z,98342.75
2023-05-06T17:43:50.630Z,98350.19
2023-05-06T17:46:35.917Z,98348.91
2023-05-06T17:49:21.413Z,98346.56
2023-05-06T17:52:06.547Z,98350.41
2023-05-06T17:55:01.066Z,98324.88
2023-05-06T17:57:51.139Z,98340.63
2023-05-06T18:00:36.423Z,98344.13
2023-05-06T18:03:22.722Z,98349.81
2023-05-06T18:06:08.441Z,98347.03
2023-05-06T18:08:53.800Z,98360.22
2023-05-06T18:11:39.695Z,98288.91
2023-05-06T18:14:25.256Z,98360.81
2023-05-06T18:17:11.044Z,98359.03
2023-05-06T18:19:56.120Z,98355.31
2023-05-06T18:22:41.735Z,98358.72
2023-05-06T18:25:26.967Z,98361.28
2023-05-06T18:28:12.521Z,98368.75
2023-05-06T18:30:58.006Z,98375.00
2023-05-06T18:33:43.444Z,98352.56
2023-05-06T18:36:28.679Z,98375.41
2023-05-06T18:39:14.096Z,98374.44
2023-05-06T18:41:59.276Z,98382.47
2023-05-06T18:44:44.463Z,98384.34
2023-05-06T18:47:29.705Z,98389.59
2023-05-06T18:50:15.172Z,98398.25
2023-05-06T18:53:00.315Z,98401.16
2023-05-06T18:55:45.698Z,98363.97
2023-05-06T18:58:31.215Z,98404.50
2023-05-06T19:01:16.993Z,98405.75
2023-05-06T19:04:02.467Z,98405.31
2023-05-06T19:06:48.402Z,98391.53
2023-05-06T19:09:33.486Z,98374.75
2023-05-06T19:12:19.019Z,98428.75
2023-05-06T19:15:05.143Z,98422.69
2023-05-06T19:17:50.472Z,98420.84
2023-05-06T19:20:35.820Z,98423.69
2023-05-06T19:23:21.215Z,98420.25
2023-05-06T19:26:07.091Z,98422.28
2023-05-06T19:28:52.694Z,98425.97
2023-05-06T19:31:38.179Z,98422.72
2023-05-06T19:34:24.550Z,98430.88
2023-05-06T19:37:10.021Z,98272.47
2023-05-06T19:39:55.392Z,98435.59
2023-05-06T19:42:40.573Z,98442.50
2023-05-06T19:45:25.705Z,98441.69
2023-05-06T19:48:11.061Z,98435.34
2023-05-06T19:50:56.440Z,98441.88
2023-05-06T19:53:41.819Z,98439.44
2023-05-06T19:56:27.181Z,98453.72
2023-05-06T19:59:12.282Z,98438.00
2023-05-06T20:01:57.454Z,98382.31
2023-05-06T20:04:45.922Z,98459.41
2023-05-06T20:07:32.179Z,98441.06
2023-05-06T20:10:17.671Z,98461.06
2023-05-06T20:13:03.648Z,98439.25
2023-05-06T20:15:48.960Z,98469.00
2023-05-06T20:18:34.055Z,98467.75
2023-05-06T20:21:19.479Z,98474.03
2023-05-06T20:24:05.174Z,98471.09
2023-05-06T20:26:50.839Z,98471.97
2023-05-06T20:29:36.224Z,98481.53
2023-05-06T20:32:21.455Z,98476.00
2023-05-06T20:35:07.494Z,98445.97
2023-05-06T20:37:52.787Z,98464.22
2023-05-06T20:40:38.302Z,98494.38
2023-05-06T20:43:23.482Z,98496.50
2023-05-06T20:46:08.794Z,98478.78
2023-05-06T20:48:53.875Z,98499.84
2023-05-06T20:51:39.145Z,98487.66
2023-05-06T20:54:24.342Z,98502.28
2023-05-06T20:57:10.733Z,98504.88
2023-05-06T20:59:56.345Z,98506.97
2023-05-06T21:02:42.261Z,98475.75
2023-05-06T21:05:27.963Z,98509.66
2023-05-06T21:08:13.154Z,98508.94
2023-05-06T21:10:58.690Z,98509.25
2023-05-06T21:13:44.179Z,98512.75
2023-05-06T21:16:29.706Z,98468.72
2023-05-06T21:19:15.207Z,98513.38
2023-05-06T21:22:00.785Z,98519.56
2023-05-06T21:24:46.098Z,98516.44
2023-05-06T21:27:31.755Z,98513.13
2023-05-06T21:30:17.146Z,98522.97
2023-05-06T21:33:03.654Z,98520.06
2023-05-06T21:35:48.883Z,98517.97
2023-05-06T21:38:34.051Z,98524.63
2023-05-06T21:41:19.551Z,98520.16
2023-05-06T21:44:05.668Z,98514.91
2023-05-06T21:46:51.401Z,98505.28
2023-05-06T21:49:36.851Z,98524.91
2023-05-06T21:52:22.463Z,98526.25
2023-05-06T21:55:08.461Z,98518.22
2023-05-06T21:57:53.794Z,98518.88
2023-05-06T22:00:39.071Z,98509.19
2023-05-06T22:03:24.249Z,98522.53
2023-05-06T22:06:09.476Z,98521.72
2023-05-06T22:08:54.734Z,98531.31
2023-05-06T22:11:40.260Z,98515.97
2023-05-06T22:14:30.256Z,98522.94
2023-05-06T22:17:23.089Z,98530.13
2023-05-06T22:20:09.255Z,98528.97
2023-05-06T22:22:54.851Z,98514.44
2023-05-06T22:25:40.086Z,98518.22
2023-05-06T22:28:25.338Z,98529.53
2023-05-06T22:31:10.898Z,98535.19
2023-05-06T22:33:56.433Z,98532.56
2023-05-06T22:36:42.001Z,98534.81
2023-05-06T22:39:27.138Z,98526.84
2023-05-06T22:42:12.515Z,98497.66
2023-05-06T22:44:57.810Z,98536.28
2023-05-06T22:47:43.235Z,98540.25
2023-05-06T22:50:28.372Z,98539.19
2023-05-06T22:53:15.658Z,98538.09
2023-05-06T22:56:01.150Z,98541.16
2023-05-06T22:58:46.733Z,98541.16
2023-05-06T23:01:32.547Z,98541.06
2023-05-06T23:04:17.922Z,98539.63
2023-05-06T23:07:03.196Z,98537.44
2023-05-06T23:09:48.312Z,98542.69
2023-05-06T23:12:34.324Z,98547.28
2023-05-06T23:15:19.943Z,98543.63
2023-05-06T23:18:05.654Z,98555.09
2023-05-06T23:20:51.122Z,98552.84
2023-05-06T23:23:36.464Z,98559.22
2023-05-06T23:26:21.917Z,98510.28
2023-05-06T23:29:07.344Z,98549.97
2023-05-06T23:31:52.445Z,98541.69
2023-05-06T23:34:37.912Z,98554.88
2023-05-06T23:37:23.132Z,98567.09
2023-05-06T23:40:08.818Z,98522.09
2023-05-06T23:42:54.230Z,98562.88
2023-05-06T23:45:39.349Z,98554.28
2023-05-06T23:48:24.625Z,98547.66
2023-05-06T23:51:10.077Z,98545.28
2023-05-06T23:53:55.341Z,98545.00
2023-05-06T23:56:40.592Z,98533.94
2023-05-06T23:59:26.175Z,98542.84
